Time;durP1;ratioP1;P1;durP2;ratioP2;P2;SDS_P1;SDS_P2;PMS_P1;PMS_P2;Temp;Humidity;BMP_temperature;BMP_pressure;BME280_temperature;BME280_humidity;BME280_pressure;Samples;Min_cycle;Max_cycle;Signal;HPM_P1;HPM_P2
2022/02/17 00:01:43;;;;;;;39.10;25.90;;;;;;;8.22;70.45;100332.19;5063356;28;20044;-69
2022/02/17 00:04:09;;;;;;;35.80;24.05;;;;;;;8.35;70.24;100334.91;5074789;28;20035;-69
2022/02/17 00:06:34;;;;;;;33.83;24.10;;;;;;;8.23;69.96;100333.06;5071172;28;20814;-69
2022/02/17 00:09:00;;;;;;;26.90;21.80;;;;;;;8.33;70.13;100328.78;5072642;28;20134;-69
2022/02/17 00:11:25;;;;;;;32.92;25.63;;;;;;;8.34;69.99;100323.56;5066903;28;20029;-69
2022/02/17 00:13:51;;;;;;;30.38;24.88;;;;;;;8.21;70.39;100333.03;5069522;28;20052;-68
2022/02/17 00:16:16;;;;;;;31.38;24.23;;;;;;;8.13;70.77;100333.84;5069315;28;20044;-69
2022/02/17 00:18:42;;;;;;;36.28;25.23;;;;;;;8.22;70.41;100324.34;5070199;28;20395;-69
2022/02/17 00:21:07;;;;;;;26.98;22.63;;;;;;;8.23;70.56;100330.44;5064088;28;20031;-69
2022/02/17 00:23:33;;;;;;;36.60;26.55;;;;;;;8.08;71.02;100331.22;5070402;28;20025;-68
2022/02/17 00:25:58;;;;;;;31.70;24.98;;;;;;;8.11;71.12;100319.91;5067496;28;20044;-68
2022/02/17 00:28:24;;;;;;;32.83;25.05;;;;;;;8.03;71.36;100314.63;5068108;28;20044;-69
2022/02/17 00:30:49;;;;;;;40.67;26.08;;;;;;;8.10;70.92;100318.13;5064022;28;20078;-69
2022/02/17 00:33:15;;;;;;;32.65;24.45;;;;;;;8.01;71.19;100322.44;5070536;28;20158;-69
2022/02/17 00:35:40;;;;;;;35.65;23.77;;;;;;;7.97;71.43;100315.41;5071087;28;20024;-68
2022/02/17 00:38:05;;;;;;;31.10;23.80;;;;;;;8.05;71.40;100305.03;5071191;28;20032;-70
2022/02/17 00:40:31;;;;;;;35.50;22.23;;;;;;;8.13;71.24;100305.97;5070630;28;20460;-71
2022/02/17 00:42:57;;;;;;;29.67;23.08;;;;;;;8.09;71.33;100292.88;5069046;28;20434;-70
2022/02/17 00:49:07;;;;;;;29.92;20.17;;;;;;;7.91;71.73;100281.38;5069652;28;20077;-68
2022/02/17 00:51:33;;;;;;;30.40;19.73;;;;;;;7.72;72.54;100277.75;5059342;28;20464;-68
2022/02/17 00:53:59;;;;;;;30.30;18.90;;;;;;;7.57;73.51;100288.94;5068692;28;20383;-68
2022/02/17 00:56:25;;;;;;;26.95;18.30;;;;;;;7.55;73.42;100271.50;5071684;28;20123;-69
2022/02/17 00:58:50;;;;;;;24.50;17.52;;;;;;;7.60;73.76;100273.28;5060960;28;20041;-69
2022/02/17 01:01:16;;;;;;;28.60;18.33;;;;;;;7.74;73.09;100267.31;5048856;28;20087;-69
2022/02/17 01:03:41;;;;;;;24.83;17.50;;;;;;;7.78;72.72;100264.75;5064814;28;20051;-69
2022/02/17 01:06:17;;;;;;;25.90;17.98;;;;;;;7.66;73.75;100267.25;5072239;28;20021;-69
2022/02/17 01:08:42;;;;;;;35.90;16.95;;;;;;;7.84;73.33;100269.13;5055165;28;20037;-69
2022/02/17 01:11:08;;;;;;;22.70;16.05;;;;;;;7.78;73.50;100272.59;5069472;28;20044;-70
2022/02/17 01:13:40;;;;;;;32.83;15.27;;;;;;;7.91;73.31;100268.31;5068692;28;20369;-69
2022/02/17 01:16:06;;;;;;;23.63;15.43;;;;;;;7.72;73.60;100256.84;5060419;28;20040;-69
2022/02/17 01:18:31;;;;;;;20.90;14.38;;;;;;;7.90;73.36;100271.81;5064141;28;20552;-69
2022/02/17 01:20:57;;;;;;;26.70;15.52;;;;;;;7.81;73.72;100271.72;5065128;28;20020;-69
2022/02/17 01:23:39;;;;;;;23.67;15.73;;;;;;;7.79;73.95;100270.84;5068120;28;20460;-69
2022/02/17 01:26:04;;;;;;;18.70;14.70;;;;;;;7.64;73.86;100255.06;5059856;28;20555;-69
2022/02/17 01:28:30;;;;;;;26.02;15.43;;;;;;;7.68;73.80;100255.09;5068898;28;20048;-69
2022/02/17 01:31:17;;;;;;;23.08;14.50;;;;;;;7.83;73.48;100264.78;5068885;28;20397;-70
2022/02/17 01:33:43;;;;;;;29.23;15.52;;;;;;;7.82;73.34;100265.66;5058071;28;20051;-69
2022/02/17 01:36:09;;;;;;;25.48;15.48;;;;;;;7.82;73.45;100268.28;5067589;28;20028;-69
2022/02/17 01:38:39;;;;;;;20.60;14.73;;;;;;;7.70;73.79;100257.69;5075094;28;20028;-69
2022/02/17 01:41:06;;;;;;;22.95;14.45;;;;;;;7.71;73.79;100260.34;5056299;28;20128;-69
2022/02/17 01:43:32;;;;;;;21.35;15.00;;;;;;;7.69;73.66;100243.78;5064286;28;20049;-69
2022/02/17 01:45:59;;;;;;;22.70;16.13;;;;;;;7.72;73.69;100249.00;5074614;28;20036;-69
2022/02/17 01:48:25;;;;;;;18.65;14.40;;;;;;;7.79;73.56;100248.19;5065777;28;20586;-69
2022/02/17 01:50:51;;;;;;;21.45;13.05;;;;;;;7.78;73.60;100243.00;5054968;28;20034;-69
2022/02/17 01:53:16;;;;;;;17.27;15.02;;;;;;;7.59;73.92;100227.16;5076071;28;20021;-68
2022/02/17 01:55:47;;;;;;;20.83;14.90;;;;;;;7.67;74.24;100240.28;5068837;28;20048;-69
2022/02/17 01:58:13;;;;;;;15.95;13.57;;;;;;;7.65;74.36;100228.94;5067233;28;20365;-69
2022/02/17 02:00:39;;;;;;;20.25;13.20;;;;;;;7.73;74.06;100224.66;5055568;28;20048;-69
2022/02/17 02:03:08;;;;;;;18.30;13.07;;;;;;;7.47;75.23;100215.69;5065287;28;20032;-69
2022/02/17 02:05:34;;;;;;;21.15;12.98;;;;;;;7.51;75.09;100202.69;5066503;28;20028;-69
2022/02/17 02:07:59;;;;;;;18.98;12.75;;;;;;;7.76;74.44;100216.84;5073835;28;20070;-68
2022/02/17 02:13:59;;;;;;;23.63;10.80;;;;;;;7.68;74.45;100205.47;5065137;28;20098;-68
2022/02/17 02:16:25;;;;;;;19.05;12.30;;;;;;;7.61;74.97;100206.28;5069958;28;20041;-68
2022/02/17 02:18:50;;;;;;;18.20;11.82;;;;;;;7.67;74.83;100208.06;5069278;28;20040;-68
2022/02/17 02:21:20;;;;;;;21.58;13.23;;;;;;;7.79;74.31;100208.16;5062943;28;20388;-69
2022/02/17 02:23:45;;;;;;;15.88;11.07;;;;;;;7.50;74.89;100208.78;5067056;28;20078;-69
2022/02/17 02:26:11;;;;;;;16.92;12.23;;;;;;;7.59;74.97;100201.03;5061114;28;20415;-69
2022/02/17 02:28:36;;;;;;;17.52;10.95;;;;;;;7.64;74.33;100208.03;5067984;28;20044;-69
2022/02/17 02:31:03;;;;;;;25.75;13.88;;;;;;;7.65;74.58;100210.66;5066633;28;20040;-69
2022/02/17 02:33:28;;;;;;;21.75;12.50;;;;;;;7.59;74.89;100211.50;5067336;28;20335;-70
2022/02/17 02:35:55;;;;;;;24.30;11.15;;;;;;;7.57;75.09;100207.13;5059802;28;20067;-69
2022/02/17 02:38:20;;;;;;;18.77;11.50;;;;;;;7.58;75.22;100211.47;5062131;28;20029;-69
2022/02/17 02:41:11;;;;;;;21.30;11.88;;;;;;;7.63;74.94;100214.13;5069448;28;20472;-69
2022/02/17 02:43:58;;;;;;;17.00;10.77;;;;;;;7.42;75.80;100213.06;5061083;28;20048;-69
2022/02/17 02:46:24;;;;;;;11.93;10.10;;;;;;;7.64;75.04;100202.81;5061843;28;20048;-68
2022/02/17 02:48:49;;;;;;;14.38;10.73;;;;;;;7.68;74.84;100204.56;5061662;28;20041;-69
2022/02/17 02:51:15;;;;;;;18.38;11.15;;;;;;;7.45;75.40;100194.81;5059693;28;20041;-68
2022/02/17 02:53:41;;;;;;;17.65;11.90;;;;;;;7.64;75.20;100202.81;5067330;28;20090;-69
2022/02/17 02:56:11;;;;;;;14.50;9.65;;;;;;;7.65;74.76;100200.22;5062024;28;20028;-70
2022/02/17 02:58:37;;;;;;;19.15;10.68;;;;;;;7.39;75.66;100185.19;5061582;28;20049;-70
2022/02/17 03:01:02;;;;;;;19.02;11.60;;;;;;;7.79;74.63;100197.72;5060063;28;20539;-70
2022/02/17 03:03:28;;;;;;;18.98;12.63;;;;;;;7.71;74.67;100202.88;5053841;28;20049;-70
2022/02/17 03:05:53;;;;;;;24.85;11.65;;;;;;;7.68;74.77;100204.56;5057979;28;20131;-70
2022/02/17 03:08:18;;;;;;;17.63;11.73;;;;;;;7.67;74.84;100208.94;5067176;28;20040;-70
2022/02/17 03:10:45;;;;;;;23.63;10.30;;;;;;;7.43;75.41;100208.72;5068112;28;20036;-70
2022/02/17 03:13:10;;;;;;;17.98;11.25;;;;;;;7.49;75.38;100206.16;5067147;28;20036;-70
2022/02/17 03:15:36;;;;;;;24.13;14.18;;;;;;;7.30;75.64;100190.31;5065911;28;20393;-70
2022/02/17 03:18:01;;;;;;;16.33;12.38;;;;;;;7.42;75.82;100193.91;5061296;28;20067;-70
2022/02/17 03:20:27;;;;;;;17.23;12.18;;;;;;;7.39;75.84;100187.78;5055415;28;20025;-70
2022/02/17 03:23:15;;;;;;;20.05;11.15;;;;;;;7.57;75.49;100184.47;5060293;28;20075;-70
2022/02/17 03:25:40;;;;;;;14.52;10.25;;;;;;;7.54;75.53;100184.47;5067668;28;20481;-70
2022/02/17 03:28:06;;;;;;;24.25;11.48;;;;;;;7.55;75.29;100160.09;5067657;28;20136;-69
2022/02/17 03:30:32;;;;;;;21.90;13.43;;;;;;;7.60;74.89;100153.16;5073909;28;20032;-69
2022/02/17 03:32:57;;;;;;;18.58;12.73;;;;;;;7.51;75.33;100155.69;5069090;28;20043;-69
2022/02/17 03:35:23;;;;;;;19.75;11.60;;;;;;;7.38;75.62;100154.75;5055457;28;20037;-69
2022/02/17 03:37:48;;;;;;;16.70;12.65;;;;;;;7.48;75.43;100158.28;5089334;28;20044;-69
2022/02/17 03:40:14;;;;;;;16.20;11.57;;;;;;;7.25;76.18;100152.00;5068594;28;20043;-69
2022/02/17 03:42:42;;;;;;;21.85;13.70;;;;;;;7.38;75.95;100164.31;5059973;28;20041;-69
2022/02/17 03:45:09;;;;;;;18.73;12.98;;;;;;;7.59;75.25;100169.72;5056169;28;20525;-69
2022/02/17 03:47:35;;;;;;;26.20;16.13;;;;;;;7.41;75.54;100151.28;5069664;28;20536;-70
2022/02/17 03:50:01;;;;;;;22.90;13.85;;;;;;;7.34;75.65;100145.13;5057625;28;20120;-70
2022/02/17 03:52:28;;;;;;;16.95;13.50;;;;;;;7.25;75.98;100155.47;5071623;28;20074;-70
2022/02/17 03:54:59;;;;;;;20.92;14.75;;;;;;;6.94;77.09;100154.31;5072690;28;20048;-69
2022/02/17 03:57:25;;;;;;;18.67;14.57;;;;;;;7.12;76.95;100161.47;5065943;28;20041;-70
2022/02/17 03:59:50;;;;;;;20.17;15.13;;;;;;;7.04;76.93;100145.72;5072231;28;20028;-70
2022/02/17 04:02:15;;;;;;;27.00;15.52;;;;;;;7.13;76.65;100147.53;5065910;28;20037;-69
2022/02/17 04:04:41;;;;;;;21.90;16.48;;;;;;;7.21;76.20;100129.34;5069808;28;20047;-70
2022/02/17 04:07:06;;;;;;;19.35;15.52;;;;;;;7.09;76.63;100124.88;5069496;28;20071;-70
2022/02/17 04:09:33;;;;;;;20.98;15.70;;;;;;;7.15;76.37;100145.81;5066253;28;20048;-69
2022/02/17 04:11:59;;;;;;;26.88;18.00;;;;;;;7.13;76.36;100139.72;5070724;28;20037;-70
2022/02/17 04:14:24;;;;;;;23.67;17.67;;;;;;;7.14;75.99;100131.00;5071858;28;20039;-70
2022/02/17 04:16:50;;;;;;;24.35;18.65;;;;;;;7.01;76.80;100129.16;5063217;28;20064;-69
2022/02/17 04:19:17;;;;;;;27.45;18.35;;;;;;;7.07;76.58;100124.00;5066522;28;20049;-69
2022/02/17 04:21:43;;;;;;;20.02;16.67;;;;;;;6.60;77.71;100126.97;5068648;28;20539;-70
2022/02/17 04:24:08;;;;;;;23.67;17.70;;;;;;;6.55;78.02;100104.38;5070329;28;20120;-70
2022/02/17 04:26:34;;;;;;;26.67;18.02;;;;;;;6.85;77.42;100120.31;5066869;28;20469;-70
2022/02/17 04:28:59;;;;;;;25.70;17.20;;;;;;;7.02;76.69;100116.13;5070588;28;20036;-69
2022/02/17 04:31:25;;;;;;;27.70;20.67;;;;;;;7.09;76.74;100112.72;5071972;28;20144;-70
2022/02/17 04:33:51;;;;;;;28.35;19.70;;;;;;;6.82;77.21;100108.13;5071294;28;20356;-71
2022/02/17 04:36:16;;;;;;;38.63;17.98;;;;;;;6.90;77.49;100114.25;5062263;28;20506;-69
2022/02/17 04:38:42;;;;;;;23.98;20.08;;;;;;;6.86;77.53;100103.78;5052471;28;20037;-70
2022/02/17 04:43:52;;;;;;;25.63;20.90;;;;;;;6.72;77.87;100109.75;5069477;28;20051;-69
2022/02/17 04:46:18;;;;;;;26.67;18.45;;;;;;;6.88;77.34;100113.41;5070173;28;20071;-69
2022/02/17 04:48:44;;;;;;;26.77;20.90;;;;;;;6.83;77.47;100111.59;5083721;28;20086;-69
2022/02/17 04:51:57;;;;;;;31.25;20.77;;;;;;;6.86;77.22;100114.22;5065057;28;20081;-70
2022/02/17 04:54:22;;;;;;;25.75;19.02;;;;;;;6.69;77.28;100111.44;5064492;28;20048;-70
2022/02/17 04:56:48;;;;;;;34.50;21.25;;;;;;;6.63;77.60;100117.47;5070097;28;20085;-69
2022/02/17 04:59:13;;;;;;;26.40;20.63;;;;;;;6.43;78.24;100101.59;5058407;28;20045;-70
2022/02/17 05:01:39;;;;;;;35.03;21.17;;;;;;;6.49;78.45;100113.84;5059071;28;20539;-69
2022/02/17 05:04:04;;;;;;;37.35;21.92;;;;;;;6.51;77.86;100101.72;5066229;28;20040;-69
2022/02/17 05:06:30;;;;;;;32.28;21.30;;;;;;;6.39;78.12;100096.31;5073418;28;20036;-69
2022/02/17 05:08:55;;;;;;;25.48;21.30;;;;;;;6.52;77.88;100114.75;5065765;28;20041;-70
2022/02/17 05:11:20;;;;;;;39.13;23.20;;;;;;;6.23;78.83;100101.38;5069213;28;20036;-69
2022/02/17 05:13:46;;;;;;;30.90;21.48;;;;;;;6.39;78.07;100107.66;5057629;28;20044;-69
2022/02/17 05:16:12;;;;;;;26.35;20.80;;;;;;;6.38;77.99;100116.31;5065875;28;20045;-69
2022/02/17 05:18:37;;;;;;;34.00;21.52;;;;;;;6.28;78.47;100128.34;5063745;28;20423;-69
2022/02/17 05:21:02;;;;;;;35.40;24.80;;;;;;;6.21;78.50;100126.53;5063358;28;20679;-69
2022/02/17 05:23:28;;;;;;;29.73;22.35;;;;;;;6.17;78.30;100113.44;5064635;28;20380;-69
2022/02/17 05:25:53;;;;;;;36.17;22.88;;;;;;;5.91;78.83;100121.75;5066147;28;20052;-69
2022/02/17 05:28:19;;;;;;;30.48;23.25;;;;;;;5.82;79.03;100113.78;5063427;28;20041;-69
2022/02/17 05:30:45;;;;;;;28.73;23.55;;;;;;;5.80;78.75;100123.31;5062517;28;20079;-70
2022/02/17 05:33:13;;;;;;;32.22;22.77;;;;;;;5.39;79.43;100123.56;5070909;28;20106;-69
2022/02/17 05:35:39;;;;;;;35.30;22.52;;;;;;;5.41;78.96;100127.94;5062150;28;20029;-69
2022/02/17 05:38:05;;;;;;;36.35;27.08;;;;;;;5.33;79.24;100129.53;5071181;28;20049;-69
2022/02/17 05:40:36;;;;;;;43.20;25.77;;;;;;;5.14;79.19;100117.06;5063299;28;20044;-69
2022/02/17 05:43:02;;;;;;;28.95;22.25;;;;;;;5.15;78.77;100129.22;5057989;28;20033;-69
2022/02/17 05:45:28;;;;;;;31.90;24.27;;;;;;;4.96;78.89;100117.59;5066762;28;20063;-69
2022/02/17 05:47:55;;;;;;;45.13;24.40;;;;;;;4.77;79.63;100121.59;5067490;28;20456;-69
2022/02/17 05:50:22;;;;;;;39.70;25.13;;;;;;;4.66;79.93;100126.63;5059004;28;20035;-70
2022/02/17 05:52:48;;;;;;;32.20;23.80;;;;;;;4.74;79.72;100114.63;5066367;28;20052;-70
2022/02/17 05:55:16;;;;;;;30.88;23.58;;;;;;;4.72;79.51;100111.13;5068915;28;20059;-70
2022/02/17 05:57:42;;;;;;;46.97;26.42;;;;;;;4.40;80.59;100116.59;5059736;28;20071;-70
2022/02/17 06:00:09;;;;;;;34.58;25.83;;;;;;;4.41;80.40;100109.66;5064145;28;20052;-70
2022/02/17 06:02:34;;;;;;;36.55;26.88;;;;;;;4.45;80.34;100108.88;5067491;28;20078;-69
2022/02/17 06:05:00;;;;;;;35.80;27.35;;;;;;;4.38;80.78;100123.47;5068206;28;20040;-69
2022/02/17 06:07:25;;;;;;;34.65;26.42;;;;;;;4.18;80.99;100104.84;5068943;28;20067;-69
2022/02/17 06:09:51;;;;;;;47.58;29.85;;;;;;;4.34;80.74;100116.44;5053831;28;20037;-69
2022/02/17 06:12:16;;;;;;;41.90;31.95;;;;;;;4.55;80.08;100109.94;5064657;28;20063;-69
2022/02/17 06:14:42;;;;;;;46.50;31.88;;;;;;;4.58;80.15;100118.66;5067552;28;20020;-70
2022/02/17 06:17:08;;;;;;;42.38;29.98;;;;;;;4.41;80.04;100112.25;5074232;28;20100;-70
2022/02/17 06:19:33;;;;;;;45.00;30.02;;;;;;;4.51;79.70;100108.97;5067643;28;20460;-69
2022/02/17 06:21:58;;;;;;;40.65;31.17;;;;;;;4.67;79.49;100111.88;5067091;28;20751;-69
2022/02/17 06:24:24;;;;;;;45.42;32.38;;;;;;;4.75;79.29;100110.28;5052555;28;20033;-70
2022/02/17 06:26:50;;;;;;;43.97;33.00;;;;;;;4.92;79.02;100103.69;5059647;28;20036;-70
2022/02/17 06:29:15;;;;;;;51.92;32.90;;;;;;;4.88;78.90;100108.81;5056699;28;20165;-70
2022/02/17 06:31:41;;;;;;;47.08;31.67;;;;;;;5.17;78.56;100107.56;5073065;28;20055;-69
2022/02/17 06:34:06;;;;;;;49.63;32.20;;;;;;;5.20;78.33;100105.03;5066593;28;20044;-70
2022/02/17 06:36:37;;;;;;;44.78;33.67;;;;;;;5.44;77.98;100090.69;5065677;28;20047;-71
2022/02/17 06:39:04;;;;;;;46.08;34.60;;;;;;;5.56;77.60;100088.25;5048657;28;20111;-70
2022/02/17 06:41:30;;;;;;;57.60;36.22;;;;;;;5.61;77.42;100077.91;5064304;28;20127;-70
2022/02/17 06:43:55;;;;;;;43.65;33.95;;;;;;;5.63;77.25;100063.19;5069002;28;20041;-70
2022/02/17 06:46:21;;;;;;;41.95;34.95;;;;;;;5.65;77.00;100069.31;5065801;28;20427;-70
2022/02/17 06:48:46;;;;;;;69.10;36.00;;;;;;;5.85;76.76;100073.06;5067569;28;20441;-71
2022/02/17 06:51:32;;;;;;;54.85;34.15;;;;;;;5.86;76.81;100079.16;5061650;28;20461;-70
2022/02/17 06:53:58;;;;;;;61.38;37.33;;;;;;;6.00;76.15;100067.22;5050261;28;20528;-70
2022/02/17 06:56:24;;;;;;;44.35;35.83;;;;;;;6.12;75.97;100069.09;5060901;28;20033;-70
2022/02/17 06:58:49;;;;;;;47.45;34.10;;;;;;;6.21;76.02;100084.84;5047112;28;20083;-70
2022/02/17 07:01:15;;;;;;;45.15;34.03;;;;;;;6.45;75.39;100078.16;5068204;28;20471;-70
2022/02/17 07:03:40;;;;;;;54.72;36.50;;;;;;;6.51;74.98;100078.25;5073989;28;20503;-69
2022/02/17 07:06:06;;;;;;;46.30;36.03;;;;;;;6.58;74.48;100067.03;5058688;28;20566;-69
2022/02/17 07:08:31;;;;;;;54.55;35.17;;;;;;;6.44;74.69;100056.44;5064732;28;20086;-69
2022/02/17 07:10:59;;;;;;;48.70;36.35;;;;;;;6.58;75.19;100056.59;5068788;28;20047;-69
2022/02/17 07:13:29;;;;;;;48.90;34.83;;;;;;;6.58;75.25;100048.78;5079535;28;20060;-70
2022/02/17 07:15:55;;;;;;;45.90;35.55;;;;;;;6.64;74.94;100051.44;5062163;28;20048;-69
2022/02/17 07:18:22;;;;;;;48.83;36.25;;;;;;;6.75;74.67;100056.75;5072264;28;20040;-70
2022/02/17 07:20:50;;;;;;;47.05;35.70;;;;;;;6.63;75.10;100038.41;5072485;28;20108;-73
2022/02/17 07:23:17;;;;;;;53.13;35.30;;;;;;;6.91;74.15;100031.72;5069295;28;20044;-68
2022/02/17 07:25:44;;;;;;;53.25;38.53;;;;;;;6.91;74.22;100042.13;5062259;28;20033;-69
2022/02/17 07:28:10;;;;;;;52.95;37.13;;;;;;;7.01;74.20;100040.47;5058423;28;20037;-67
2022/02/17 07:30:37;;;;;;;48.25;36.30;;;;;;;7.15;73.58;100039.72;5061819;28;20048;-69
2022/02/17 07:33:02;;;;;;;59.17;36.08;;;;;;;7.20;73.48;100021.50;5068616;28;20116;-68
2022/02/17 07:35:28;;;;;;;53.53;37.40;;;;;;;7.19;73.84;100031.06;5058579;28;20028;-67
2022/02/17 07:37:54;;;;;;;58.10;37.08;;;;;;;7.11;74.12;100024.91;5069166;28;20043;-70
2022/02/17 07:40:21;;;;;;;55.67;38.25;;;;;;;7.32;73.61;100045.06;5075654;28;20043;-71
2022/02/17 07:42:47;;;;;;;62.22;36.92;;;;;;;7.45;73.28;100029.50;5071656;28;20082;-76
2022/02/17 07:45:16;;;;;;;46.13;37.45;;;;;;;7.48;73.42;100025.16;5072478;28;20082;-74
2022/02/17 07:47:45;;;;;;;51.35;34.45;;;;;;;7.65;73.18;100034.84;5076288;28;20029;-75
2022/02/17 07:50:12;;;;;;;55.17;37.22;;;;;;;7.71;72.91;100033.13;5071959;28;20048;-74
2022/02/17 07:52:38;;;;;;;50.10;34.80;;;;;;;7.61;73.32;100027.00;5055219;28;20123;-75
2022/02/17 07:55:04;;;;;;;45.83;35.47;;;;;;;7.70;73.38;100030.50;5070690;28;20135;-76
2022/02/17 07:57:30;;;;;;;50.63;34.65;;;;;;;7.77;73.01;100009.66;5065713;28;20144;-75
2022/02/17 07:59:55;;;;;;;44.15;33.90;;;;;;;7.76;73.15;100005.28;5067154;28;20456;-76
2022/02/17 08:02:21;;;;;;;45.08;35.13;;;;;;;8.00;72.41;100003.66;5068766;28;20032;-76
2022/02/17 08:04:46;;;;;;;45.80;33.50;;;;;;;7.96;72.62;100000.16;5069902;28;20088;-75
2022/02/17 08:07:12;;;;;;;41.05;30.52;;;;;;;7.92;72.88;99990.56;5069817;28;20032;-75
2022/02/17 08:09:37;;;;;;;52.65;33.42;;;;;;;8.20;72.35;100001.13;5056589;28;20048;-75
2022/02/17 08:12:04;;;;;;;44.67;31.20;;;;;;;8.18;72.26;100006.34;5065428;28;20032;-75
2022/02/17 08:14:29;;;;;;;44.75;33.60;;;;;;;8.38;71.81;99993.34;5071272;28;20456;-74
2022/02/17 08:16:54;;;;;;;40.83;31.38;;;;;;;8.49;71.65;99998.59;5065198;28;20041;-75
2022/02/17 08:19:20;;;;;;;48.55;33.47;;;;;;;8.29;71.71;99984.56;5061654;28;20045;-77
2022/02/17 08:21:46;;;;;;;35.50;29.85;;;;;;;8.36;71.50;99981.13;5056497;28;20036;-75
2022/02/17 08:24:13;;;;;;;38.17;30.55;;;;;;;8.76;70.75;99984.69;5065035;28;20395;-76
2022/02/17 08:26:39;;;;;;;39.03;28.60;;;;;;;8.77;70.21;99990.78;5056204;28;20519;-75
2022/02/17 08:29:34;;;;;;;41.72;28.70;;;;;;;8.38;71.52;99975.03;5058175;28;20448;-74
2022/02/17 08:32:02;;;;;;;39.80;27.20;;;;;;;8.60;71.41;99975.09;5053531;28;20132;-75
2022/02/17 08:34:28;;;;;;;40.03;29.73;;;;;;;8.79;70.86;99976.84;5060992;28;20098;-75
2022/02/17 08:36:53;;;;;;;47.45;27.95;;;;;;;8.79;70.81;99978.59;5054113;28;20041;-75
2022/02/17 08:39:19;;;;;;;35.22;26.67;;;;;;;8.99;70.52;99975.94;5059012;28;20048;-76
2022/02/17 08:41:45;;;;;;;47.70;28.83;;;;;;;8.93;70.49;99979.44;5073352;28;20039;-75
2022/02/17 08:44:10;;;;;;;35.67;25.63;;;;;;;8.98;70.37;99977.69;5052529;28;20473;-75
2022/02/17 08:46:36;;;;;;;34.88;27.13;;;;;;;9.06;70.32;99961.97;5066752;28;20041;-75
2022/02/17 08:49:02;;;;;;;38.85;28.30;;;;;;;9.36;69.50;99965.44;5059734;28;20041;-76
2022/02/17 08:51:29;;;;;;;39.83;26.40;;;;;;;9.29;68.97;99957.59;5046927;28;20041;-75
2022/02/17 08:53:56;;;;;;;36.45;26.10;;;;;;;9.36;68.91;99957.56;5063385;28;20040;-76
2022/02/17 08:56:22;;;;;;;34.92;24.75;;;;;;;9.60;68.43;99952.28;5069125;28;20372;-75
2022/02/17 08:59:23;;;;;;;39.83;26.13;;;;;;;9.52;68.94;99952.28;5063831;28;20048;-75
2022/02/17 09:01:49;;;;;;;34.08;24.42;;;;;;;9.43;69.32;99949.69;5066381;28;20430;-77
2022/02/17 09:04:14;;;;;;;30.40;24.48;;;;;;;8.91;70.78;99931.47;5068939;28;20083;-76
2022/02/17 09:06:40;;;;;;;39.95;25.58;;;;;;;9.26;69.36;99930.53;5070367;28;20073;-75
2022/02/17 09:09:05;;;;;;;35.30;26.10;;;;;;;9.45;69.36;99940.09;5050186;28;20547;-75
2022/02/17 09:11:31;;;;;;;40.10;27.00;;;;;;;9.75;68.93;99946.09;5065207;28;20048;-76
2022/02/17 09:14:19;;;;;;;41.00;26.88;;;;;;;9.69;68.52;99933.91;5063021;28;20041;-75
2022/02/17 09:16:45;;;;;;;61.45;31.45;;;;;;;9.89;68.27;99919.84;5065822;28;20040;-75
2022/02/17 09:19:11;;;;;;;34.33;25.73;;;;;;;10.12;67.39;99923.19;5069160;28;20054;-76
2022/02/17 09:21:37;;;;;;;35.53;23.00;;;;;;;10.07;67.53;99924.97;5068517;28;20086;-75
2022/02/17 09:24:03;;;;;;;36.50;27.13;;;;;;;9.75;67.93;99911.16;5057078;28;20091;-77
2022/02/17 09:26:29;;;;;;;30.67;24.33;;;;;;;9.94;67.68;99916.28;5057026;28;20105;-77
2022/02/17 09:28:56;;;;;;;39.42;27.00;;;;;;;10.00;67.98;99906.69;5055627;28;20044;-75
2022/02/17 09:31:23;;;;;;;36.72;26.83;;;;;;;10.06;67.06;99896.13;5068306;28;20052;-75
2022/02/17 09:33:50;;;;;;;41.30;25.65;;;;;;;10.20;66.67;99893.44;5068231;28;20041;-75
2022/02/17 09:36:17;;;;;;;33.85;24.38;;;;;;;10.46;66.36;99894.13;5067367;28;20093;-75
2022/02/17 09:38:43;;;;;;;38.17;26.60;;;;;;;10.38;66.27;99888.09;5066702;28;20040;-76
2022/02/17 09:41:10;;;;;;;32.08;24.75;;;;;;;10.58;65.70;99880.03;5053881;28;20480;-75
2022/02/17 09:43:37;;;;;;;35.00;25.35;;;;;;;10.90;64.61;99873.63;5054503;28;20067;-76
2022/02/17 09:46:04;;;;;;;36.72;24.98;;;;;;;11.06;64.45;99888.34;5057194;28;20123;-75
2022/02/17 09:48:31;;;;;;;33.20;24.45;;;;;;;10.97;63.96;99891.06;5063887;28;20146;-75
2022/02/17 09:50:56;;;;;;;35.70;26.92;;;;;;;11.33;63.38;99875.78;5054265;28;20039;-75
2022/02/17 09:53:22;;;;;;;45.97;26.00;;;;;;;11.28;62.91;99878.47;5061172;28;20037;-75
2022/02/17 09:55:48;;;;;;;35.45;25.83;;;;;;;11.18;62.80;99868.97;5061818;28;20094;-76
2022/02/17 09:58:15;;;;;;;34.05;24.50;;;;;;;11.42;62.31;99870.41;5058409;28;20388;-74
2022/02/17 10:00:56;;;;;;;34.35;25.45;;;;;;;11.55;61.96;99858.88;5050313;28;20051;-75
2022/02/17 10:03:28;;;;;;;29.42;23.17;;;;;;;11.67;61.14;99855.22;5074225;28;20044;-75
2022/02/17 10:06:14;;;;;;;40.47;23.88;;;;;;;11.58;60.98;99842.19;5063687;28;20029;-76
2022/02/17 10:08:43;;;;;;;32.70;24.05;;;;;;;11.42;61.60;99844.16;5061933;28;20491;-76
2022/02/17 10:11:26;;;;;;;31.25;22.35;;;;;;;11.41;61.18;99827.53;5076687;28;20060;-75
2022/02/17 10:13:59;;;;;;;31.13;23.33;;;;;;;11.78;60.52;99829.66;5066310;28;20527;-75
2022/02/17 10:16:24;;;;;;;35.92;25.38;;;;;;;11.82;60.88;99822.59;5067909;28;20435;-75
2022/02/17 10:18:50;;;;;;;35.15;23.65;;;;;;;11.93;59.85;99810.19;5054916;28;20037;-75
2022/02/17 10:21:40;;;;;;;33.08;23.27;;;;;;;11.98;59.90;99816.22;5071345;28;20063;-75
2022/02/17 10:24:05;;;;;;;28.17;23.55;;;;;;;12.01;59.93;99808.31;5056868;28;20032;-75
2022/02/17 10:26:31;;;;;;;27.92;23.75;;;;;;;12.19;59.74;99786.09;5074011;28;20032;-76
2022/02/17 10:29:03;;;;;;;25.90;22.45;;;;;;;12.39;59.46;99779.66;5073382;28;20393;-76
2022/02/17 10:31:37;;;;;;;34.65;23.48;;;;;;;12.57;58.80;99771.41;5065963;28;20047;-70
2022/02/17 10:34:04;;;;;;;30.88;23.30;;;;;;;12.91;56.87;99773.41;5058510;28;20079;-66
2022/02/17 10:36:47;;;;;;;30.30;23.25;;;;;;;12.92;57.36;99769.84;5062031;28;20132;-69
2022/02/17 10:39:22;;;;;;;33.00;21.13;;;;;;;12.94;57.14;99747.00;5065267;28;20422;-69
2022/02/17 10:42:01;;;;;;;26.00;22.50;;;;;;;12.70;57.28;99740.47;5066844;28;20028;-69
2022/02/17 10:44:31;;;;;;;32.78;22.33;;;;;;;12.94;56.87;99732.97;5059992;28;20036;-69
2022/02/17 10:47:09;;;;;;;27.98;19.08;;;;;;;13.08;56.52;99733.53;5061707;28;20063;-69
2022/02/17 10:49:40;;;;;;;27.50;21.45;;;;;;;13.76;55.28;99732.91;5067515;28;20040;-69
2022/02/17 10:52:06;;;;;;;26.63;19.27;;;;;;;13.88;54.64;99732.63;5067353;28;20063;-69
2022/02/17 10:54:31;;;;;;;36.22;21.90;;;;;;;13.82;54.38;99716.94;5066741;28;20044;-69
2022/02/17 10:57:03;;;;;;;32.10;21.08;;;;;;;14.31;53.17;99730.69;5054199;28;20041;-68
2022/02/17 11:02:22;;;;;;;27.65;22.45;;;;;;;14.51;53.28;99707.22;5066915;28;20252;-70
2022/02/17 11:04:49;;;;;;;28.35;23.67;;;;;;;13.92;54.52;99699.97;5054952;28;20064;-70
2022/02/17 11:07:16;;;;;;;32.08;25.08;;;;;;;14.08;54.39;99689.06;5059162;28;20127;-68
2022/02/17 11:09:41;;;;;;;27.25;21.73;;;;;;;14.53;54.44;99692.22;5066129;28;20052;-70
2022/02/17 11:12:08;;;;;;;34.15;24.83;;;;;;;15.05;51.83;99681.94;5049894;28;20037;-69
2022/02/17 11:14:55;;;;;;;30.00;21.42;;;;;;;15.06;52.13;99674.91;5070088;28;20029;-68
2022/02/17 11:17:21;;;;;;;23.77;20.70;;;;;;;14.74;53.03;99680.22;5056716;28;20048;-68
2022/02/17 11:19:46;;;;;;;28.63;21.17;;;;;;;14.85;52.60;99665.84;5047654;28;20048;-68
2022/02/17 11:22:12;;;;;;;35.05;21.33;;;;;;;14.59;52.92;99669.25;5068262;28;20057;-68
2022/02/17 11:24:54;;;;;;;25.45;20.85;;;;;;;14.50;53.07;99658.00;5050910;28;20068;-68
2022/02/17 11:27:21;;;;;;;29.45;21.45;;;;;;;14.76;52.60;99661.69;5057534;28;20486;-69
2022/02/17 11:29:47;;;;;;;27.90;21.85;;;;;;;14.43;52.96;99667.00;5066671;28;20368;-69
2022/02/17 11:32:16;;;;;;;28.58;19.15;;;;;;;14.50;53.04;99650.06;5060136;28;20051;-69